createdAt,value
2022-12-06T00:01:40.258Z,24.02
2022-12-06T00:04:11.937Z,17.88
2022-12-06T00:06:43.062Z,18.90
2022-12-06T00:09:23.878Z,17.55
2022-12-06T00:11:52.028Z,23.60
2022-12-06T00:14:20.214Z,23.15
2022-12-06T00:16:48.151Z,15.45
2022-12-06T00:19:21.086Z,21.85
2022-12-06T00:21:49.036Z,28.92
2022-12-06T00:24:21.985Z,22.75
2022-12-06T00:26:50.465Z,19.73
2022-12-06T00:29:23.513Z,15.60
2022-12-06T00:31:51.637Z,21.35
2022-12-06T00:34:19.319Z,20.48
2022-12-06T00:36:46.979Z,24.50
2022-12-06T00:39:16.956Z,14.15
2022-12-06T00:41:45.085Z,19.10
2022-12-06T00:44:12.808Z,17.63
2022-12-06T00:46:40.791Z,17.20
2022-12-06T00:49:09.478Z,13.25
2022-12-06T00:51:38.146Z,14.55
2022-12-06T00:54:06.532Z,19.38
2022-12-06T00:56:36.425Z,10.65
2022-12-06T00:59:04.921Z,17.52
2022-12-06T01:01:34.010Z,24.40
2022-12-06T01:04:03.795Z,21.55
2022-12-06T01:06:33.823Z,18.50
2022-12-06T01:09:04.644Z,19.63
2022-12-06T01:11:32.519Z,25.60
2022-12-06T01:14:00.230Z,22.27
2022-12-06T01:16:30.324Z,22.98
2022-12-06T01:19:02.183Z,27.58
2022-12-06T01:21:30.540Z,26.73
2022-12-06T01:23:58.228Z,28.30
2022-12-06T01:26:29.068Z,25.90
2022-12-06T01:28:57.767Z,22.50
2022-12-06T01:31:25.117Z,26.10
2022-12-06T01:33:52.608Z,22.83
2022-12-06T01:36:25.417Z,23.80
2022-12-06T01:38:54.870Z,25.80
2022-12-06T01:41:24.545Z,28.52
2022-12-06T01:43:52.418Z,32.97
2022-12-06T01:46:36.962Z,24.30
2022-12-06T01:49:13.417Z,25.55
2022-12-06T01:51:48.065Z,29.90
2022-12-06T01:54:17.379Z,22.55
2022-12-06T01:56:45.311Z,22.55
2022-12-06T01:59:13.225Z,25.88
2022-12-06T02:01:41.057Z,28.42
2022-12-06T02:04:09.989Z,39.17
2022-12-06T02:06:39.233Z,29.30
2022-12-06T02:09:09.439Z,38.95
2022-12-06T02:11:37.514Z,39.95
2022-12-06T02:14:09.805Z,43.42
2022-12-06T02:19:35.095Z,40.40
2022-12-06T02:22:13.127Z,43.60
2022-12-06T02:25:01.223Z,32.95
2022-12-06T02:27:53.472Z,33.03
2022-12-06T02:30:39.509Z,41.00
2022-12-06T02:33:27.108Z,32.17
2022-12-06T02:36:06.834Z,33.08
2022-12-06T02:38:43.533Z,29.27
2022-12-06T02:41:24.279Z,22.65
2022-12-06T02:44:00.135Z,25.00
2022-12-06T02:46:31.157Z,26.23
2022-12-06T02:49:00.848Z,22.88
2022-12-06T02:51:31.877Z,34.67
2022-12-06T02:54:01.724Z,23.02
2022-12-06T02:56:32.247Z,25.20
2022-12-06T02:59:00.179Z,17.52
2022-12-06T03:01:33.774Z,21.20
2022-12-06T03:04:09.934Z,17.95
2022-12-06T03:06:43.187Z,19.60
2022-12-06T03:09:45.697Z,17.85
2022-12-06T03:12:19.040Z,17.70
2022-12-06T03:15:22.716Z,22.80
2022-12-06T03:18:34.137Z,22.77
2022-12-06T03:21:09.192Z,25.58
2022-12-06T03:23:44.844Z,20.17
2022-12-06T03:26:16.074Z,20.05
2022-12-06T03:28:43.371Z,27.98
2022-12-06T03:31:14.298Z,17.67
2022-12-06T03:33:49.162Z,24.58
2022-12-06T03:36:18.866Z,17.42
2022-12-06T03:39:05.314Z,19.40
2022-12-06T03:41:50.247Z,17.88
2022-12-06T03:44:17.763Z,17.23
2022-12-06T03:46:49.930Z,13.98
2022-12-06T03:49:31.703Z,15.30
2022-12-06T03:51:59.658Z,13.27
2022-12-06T03:54:27.044Z,12.73
2022-12-06T03:56:54.311Z,16.45
2022-12-06T03:59:21.704Z,16.67
2022-12-06T04:01:49.204Z,13.85
2022-12-06T04:04:16.719Z,13.70
2022-12-06T04:06:44.130Z,14.70
2022-12-06T04:09:29.940Z,15.63
2022-12-06T04:11:57.298Z,16.33
2022-12-06T04:14:32.543Z,15.90
2022-12-06T04:17:18.806Z,14.27
2022-12-06T04:19:51.839Z,17.08
2022-12-06T04:22:37.846Z,21.08
2022-12-06T04:25:05.549Z,14.75
2022-12-06T04:27:51.095Z,12.70
2022-12-06T04:30:36.870Z,12.93
2022-12-06T04:33:22.511Z,7.55
2022-12-06T04:36:08.212Z,14.93
2022-12-06T04:38:45.095Z,11.55
2022-12-06T04:41:33.565Z,12.60
2022-12-06T04:44:00.964Z,14.40
2022-12-06T04:46:28.401Z,12.50
2022-12-06T04:48:56.057Z,13.32
2022-12-06T04:51:23.591Z,9.73
2022-12-06T04:53:51.555Z,9.95
2022-12-06T04:56:19.424Z,12.70
2022-12-06T04:58:47.090Z,13.38
2022-12-06T05:01:14.621Z,10.82
2022-12-06T05:03:44.294Z,16.98
2022-12-06T05:06:14.943Z,11.93
2022-12-06T05:08:42.404Z,9.40
2022-12-06T05:11:09.919Z,9.77
2022-12-06T05:13:37.243Z,12.90
2022-12-06T05:16:06.597Z,10.38
2022-12-06T05:18:34.741Z,12.52
2022-12-06T05:21:09.459Z,14.43
2022-12-06T05:23:37.355Z,13.98
2022-12-06T05:26:07.875Z,13.57
2022-12-06T05:28:35.491Z,16.92
2022-12-06T05:31:03.384Z,12.60
2022-12-06T05:33:31.227Z,15.98
2022-12-06T05:35:58.648Z,16.05
2022-12-06T05:38:25.959Z,13.50
2022-12-06T05:40:53.304Z,9.02
2022-12-06T05:43:20.701Z,12.13
2022-12-06T05:45:53.517Z,15.00
2022-12-06T05:48:21.016Z,14.93
2022-12-06T05:50:49.159Z,10.15
2022-12-06T05:53:17.206Z,10.65
2022-12-06T05:55:44.935Z,11.68
2022-12-06T05:58:12.972Z,16.00
2022-12-06T06:00:40.569Z,12.05
2022-12-06T06:03:08.477Z,11.15
2022-12-06T06:05:35.903Z,12.32
2022-12-06T06:08:03.418Z,12.82
2022-12-06T06:10:30.807Z,10.85
2022-12-06T06:12:58.131Z,13.57
2022-12-06T06:15:25.436Z,12.68
2022-12-06T06:17:52.719Z,14.88
2022-12-06T06:20:20.045Z,10.45
2022-12-06T06:22:47.459Z,13.90
2022-12-06T06:25:14.692Z,14.68
2022-12-06T06:27:42.070Z,19.17
2022-12-06T06:30:11.642Z,17.15
2022-12-06T06:32:39.466Z,11.68
2022-12-06T06:35:07.721Z,18.00
2022-12-06T06:37:35.353Z,16.90
2022-12-06T06:40:02.992Z,15.27
2022-12-06T06:42:30.688Z,14.38
2022-12-06T06:44:58.120Z,13.50
2022-12-06T06:47:25.481Z,24.42
2022-12-06T06:49:52.878Z,13.43
2022-12-06T06:52:20.534Z,20.88
2022-12-06T06:54:47.907Z,15.23
2022-12-06T06:57:17.857Z,22.45
2022-12-06T06:59:46.363Z,15.32
2022-12-06T07:02:15.135Z,26.23
2022-12-06T07:04:42.607Z,17.50
2022-12-06T07:07:12.561Z,19.60
2022-12-06T07:09:42.169Z,19.92
2022-12-06T07:12:10.055Z,15.02
2022-12-06T07:14:37.439Z,14.32
2022-12-06T07:17:04.952Z,19.98
2022-12-06T07:19:32.344Z,16.27
2022-12-06T07:21:59.754Z,18.25
2022-12-06T07:24:27.051Z,20.05
2022-12-06T07:26:56.959Z,17.60
2022-12-06T07:29:24.309Z,19.27
2022-12-06T07:31:51.548Z,19.40
2022-12-06T07:34:18.887Z,22.38
2022-12-06T07:36:46.304Z,21.23
2022-12-06T07:39:15.136Z,18.65
2022-12-06T07:42:01.434Z,16.13
2022-12-06T07:45:02.007Z,21.83
2022-12-06T07:47:38.379Z,21.58
2022-12-06T07:50:15.962Z,20.58
2022-12-06T07:52:46.700Z,20.55
2022-12-06T07:55:15.009Z,18.65
2022-12-06T07:57:44.043Z,22.00
2022-12-06T08:00:14.688Z,31.25
2022-12-06T08:02:42.466Z,19.63
2022-12-06T08:05:11.552Z,27.80
2022-12-06T08:07:39.570Z,25.08
2022-12-06T08:10:07.813Z,15.88
2022-12-06T08:12:35.189Z,18.42
2022-12-06T08:15:02.724Z,22.83
2022-12-06T08:17:30.969Z,19.75
2022-12-06T08:19:58.668Z,27.25
2022-12-06T08:22:26.396Z,25.15
2022-12-06T08:24:53.809Z,34.92
2022-12-06T08:27:21.027Z,28.52
2022-12-06T08:29:48.359Z,23.60
2022-12-06T08:32:15.722Z,26.60
2022-12-06T08:34:43.936Z,23.27
2022-12-06T08:37:12.920Z,25.75
2022-12-06T08:39:40.592Z,24.38
2022-12-06T08:42:08.370Z,26.65
2022-12-06T08:44:36.680Z,24.10
2022-12-06T08:47:04.243Z,28.08
2022-12-06T08:49:32.230Z,20.42
2022-12-06T08:52:00.316Z,21.58
2022-12-06T08:54:28.528Z,24.63
2022-12-06T08:56:56.298Z,22.90
2022-12-06T08:59:24.209Z,22.10
2022-12-06T09:01:51.674Z,23.17
2022-12-06T09:04:19.221Z,23.00
2022-12-06T09:06:46.986Z,19.58
2022-12-06T09:09:16.059Z,22.08
2022-12-06T09:11:44.799Z,22.13
2022-12-06T09:14:21.402Z,20.35
2022-12-06T09:16:50.504Z,19.85
2022-12-06T09:19:18.293Z,21.33
2022-12-06T09:21:49.151Z,25.50
2022-12-06T09:24:18.088Z,23.67
2022-12-06T09:26:45.754Z,23.35
2022-12-06T09:29:13.426Z,20.98
2022-12-06T09:31:41.394Z,19.58
2022-12-06T09:34:11.783Z,22.23
2022-12-06T09:36:45.702Z,30.80
2022-12-06T09:39:23.538Z,18.90
2022-12-06T09:42:17.243Z,23.90
2022-12-06T09:45:07.716Z,18.88
2022-12-06T09:47:50.106Z,21.77
2022-12-06T09:50:54.723Z,21.80
2022-12-06T09:53:57.489Z,20.30
2022-12-06T09:59:24.810Z,32.70
2022-12-06T10:02:10.277Z,33.03
2022-12-06T10:05:22.500Z,28.02
2022-12-06T10:08:08.990Z,24.00
2022-12-06T10:11:17.593Z,24.65
2022-12-06T10:14:05.461Z,28.67
2022-12-06T10:16:56.997Z,26.10
2022-12-06T10:20:02.311Z,21.95
2022-12-06T10:22:35.696Z,25.75
2022-12-06T10:25:09.177Z,23.65
2022-12-06T10:27:59.831Z,32.33
2022-12-06T10:30:27.979Z,30.80
2022-12-06T10:33:05.854Z,27.02
2022-12-06T10:35:53.307Z,27.83
2022-12-06T10:38:34.104Z,27.60
2022-12-06T10:41:34.383Z,26.17
2022-12-06T10:44:13.548Z,27.15
2022-12-06T10:47:05.288Z,17.75
2022-12-06T10:49:54.382Z,19.58
2022-12-06T10:52:44.823Z,16.33
2022-12-06T10:55:19.499Z,18.42
2022-12-06T10:58:16.108Z,19.65
2022-12-06T11:01:16.988Z,13.52
2022-12-06T11:04:03.310Z,18.30
2022-12-06T11:06:55.792Z,21.38
2022-12-06T11:09:45.470Z,24.90
2022-12-06T11:12:29.554Z,13.73
2022-12-06T11:15:15.450Z,12.23
2022-12-06T11:17:49.353Z,12.35
2022-12-06T11:20:23.123Z,14.45
2022-12-06T11:23:28.079Z,23.55
2022-12-06T11:26:30.624Z,22.13
2022-12-06T11:29:08.271Z,11.15
2022-12-06T11:31:57.786Z,13.57
2022-12-06T11:34:43.653Z,14.60
2022-12-06T11:37:17.458Z,14.63
2022-12-06T11:39:46.057Z,28.02
2022-12-06T11:42:16.584Z,10.45
2022-12-06T11:44:53.735Z,18.52
2022-12-06T11:47:23.046Z,17.60
2022-12-06T11:49:54.372Z,17.42
2022-12-06T11:52:35.762Z,17.88
2022-12-06T11:55:07.624Z,41.67
2022-12-06T11:57:52.796Z,26.17
2022-12-06T12:00:23.851Z,15.20
2022-12-06T12:02:54.607Z,22.05
2022-12-06T12:05:31.494Z,10.60
2022-12-06T12:08:02.372Z,16.23
2022-12-06T12:10:43.679Z,26.92
2022-12-06T12:13:32.721Z,22.40
2022-12-06T12:16:22.653Z,19.65
2022-12-06T12:18:59.445Z,14.88
2022-12-06T12:21:42.461Z,13.68
2022-12-06T12:27:46.259Z,11.50
2022-12-06T12:30:37.979Z,13.18
2022-12-06T12:33:08.317Z,9.45
2022-12-06T12:35:45.126Z,13.35
2022-12-06T12:38:31.513Z,14.18
2022-12-06T12:41:12.765Z,16.35
2022-12-06T12:43:46.145Z,15.30
2022-12-06T12:46:21.320Z,15.52
2022-12-06T12:48:50.485Z,9.27
2022-12-06T12:51:32.997Z,13.07
2022-12-06T12:54:03.922Z,8.07
2022-12-06T12:56:35.705Z,12.90
2022-12-06T13:02:01.441Z,12.90
2022-12-06T13:04:59.818Z,18.80
2022-12-06T13:07:41.647Z,17.88
2022-12-06T13:10:33.619Z,15.52
2022-12-06T13:13:12.970Z,12.55
2022-12-06T13:15:47.786Z,16.70
2022-12-06T13:18:25.784Z,13.52
2022-12-06T13:20:57.298Z,9.00
2022-12-06T13:23:29.559Z,11.00
2022-12-06T13:26:35.960Z,13.18
2022-12-06T13:29:22.874Z,16.92
2022-12-06T13:31:53.508Z,10.98
2022-12-06T13:34:53.310Z,15.05
2022-12-06T13:37:27.688Z,10.18
2022-12-06T13:39:55.639Z,11.43
2022-12-06T13:42:45.703Z,14.38
2022-12-06T13:45:43.170Z,13.48
2022-12-06T13:48:26.062Z,12.80
2022-12-06T13:51:04.500Z,10.55
2022-12-06T13:53:34.256Z,17.63
2022-12-06T13:56:28.680Z,10.18
2022-12-06T13:58:58.146Z,11.88
2022-12-06T14:01:40.654Z,16.45
2022-12-06T14:07:02.797Z,19.17
2022-12-06T14:09:41.083Z,17.33
2022-12-06T14:12:16.677Z,15.63
2022-12-06T14:14:54.185Z,24.52
2022-12-06T14:17:59.305Z,14.45
2022-12-06T14:20:26.209Z,13.70
2022-12-06T14:22:54.175Z,21.38
2022-12-06T14:25:24.770Z,24.48
2022-12-06T14:28:02.298Z,15.10
2022-12-06T14:30:30.696Z,17.00
2022-12-06T14:32:59.875Z,16.45
2022-12-06T14:35:35.435Z,19.20
2022-12-06T14:38:38.484Z,15.30
2022-12-06T14:41:24.247Z,14.95
2022-12-06T14:43:52.846Z,25.77
2022-12-06T14:46:22.528Z,20.85
2022-12-06T14:49:09.184Z,17.38
2022-12-06T14:51:44.002Z,22.13
2022-12-06T14:54:19.990Z,18.45
2022-12-06T14:56:47.447Z,22.90
2022-12-06T14:59:38.961Z,24.20
2022-12-06T15:02:26.339Z,17.52
2022-12-06T15:04:53.947Z,15.40
2022-12-06T15:07:38.611Z,16.45
2022-12-06T15:10:32.819Z,16.33
2022-12-06T15:13:18.792Z,23.00
2022-12-06T15:15:48.010Z,14.35
2022-12-06T15:18:28.804Z,30.10
2022-12-06T15:20:56.361Z,18.05
2022-12-06T15:23:26.732Z,24.33
2022-12-06T15:25:54.231Z,19.38
2022-12-06T15:28:22.025Z,25.42
2022-12-06T15:30:50.500Z,16.52
2022-12-06T15:33:24.553Z,16.92
2022-12-06T15:35:52.374Z,22.55
2022-12-06T15:38:24.818Z,14.52
2022-12-06T15:40:54.048Z,21.77
2022-12-06T15:43:35.698Z,19.77
2022-12-06T15:46:05.340Z,14.02
2022-12-06T15:48:37.150Z,11.35
2022-12-06T15:51:10.340Z,17.00
2022-12-06T15:53:38.610Z,18.50
2022-12-06T15:56:06.111Z,21.52
2022-12-06T15:58:33.520Z,15.00
2022-12-06T16:01:00.913Z,12.15
2022-12-06T16:03:28.337Z,18.13
2022-12-06T16:05:57.375Z,19.15
2022-12-06T16:08:24.852Z,18.98
2022-12-06T16:13:39.913Z,15.63
2022-12-06T16:16:08.766Z,15.52
2022-12-06T16:18:36.351Z,18.50
2022-12-06T16:21:05.437Z,19.63
2022-12-06T16:26:45.492Z,15.95
2022-12-06T16:29:23.988Z,20.77
2022-12-06T16:31:53.066Z,17.08
2022-12-06T16:34:21.171Z,17.73
2022-12-06T16:37:04.968Z,19.63
2022-12-06T16:39:34.428Z,15.85
2022-12-06T16:42:03.789Z,21.55
2022-12-06T16:44:31.485Z,19.58
2022-12-06T16:46:59.143Z,22.27
2022-12-06T16:49:47.023Z,19.48
2022-12-06T16:52:18.002Z,18.65
2022-12-06T16:54:47.880Z,20.45
2022-12-06T16:57:15.508Z,18.45
2022-12-06T16:59:43.330Z,18.45
2022-12-06T17:02:31.835Z,23.23
2022-12-06T17:05:01.847Z,22.95
2022-12-06T17:07:29.752Z,20.63
2022-12-06T17:09:57.178Z,17.38
2022-12-06T17:12:24.620Z,20.63
2022-12-06T17:14:52.314Z,21.83
2022-12-06T17:17:21.843Z,22.65
2022-12-06T17:19:49.917Z,22.50
2022-12-06T17:22:18.867Z,25.33
2022-12-06T17:24:46.541Z,23.33
2022-12-06T17:27:15.140Z,19.60
2022-12-06T17:29:44.062Z,35.10
2022-12-06T17:32:12.254Z,30.42
2022-12-06T17:34:39.718Z,23.02
2022-12-06T17:37:07.034Z,21.92
2022-12-06T17:39:34.953Z,25.05
2022-12-06T17:42:20.569Z,23.00
2022-12-06T17:44:47.970Z,30.17
2022-12-06T17:47:15.405Z,22.95
2022-12-06T17:49:43.017Z,25.17
2022-12-06T17:52:14.649Z,25.63
2022-12-06T17:54:42.194Z,21.65
2022-12-06T17:57:18.513Z,27.02
2022-12-06T17:59:47.382Z,22.35
2022-12-06T18:02:18.927Z,26.17
2022-12-06T18:04:47.829Z,23.48
2022-12-06T18:07:16.228Z,17.38
2022-12-06T18:09:43.535Z,21.25
2022-12-06T18:12:13.333Z,18.63
2022-12-06T18:14:40.661Z,24.60
2022-12-06T18:17:08.217Z,24.55
2022-12-06T18:19:36.040Z,29.00
2022-12-06T18:22:03.987Z,25.77
2022-12-06T18:24:35.426Z,23.40
2022-12-06T18:27:06.877Z,28.50
2022-12-06T18:29:34.859Z,20.77
2022-12-06T18:32:03.603Z,27.05
2022-12-06T18:34:31.596Z,23.13
2022-12-06T18:36:58.914Z,25.70
2022-12-06T18:39:26.707Z,31.38
2022-12-06T18:41:55.021Z,22.58
2022-12-06T18:44:23.076Z,27.38
2022-12-06T18:46:50.608Z,24.27
2022-12-06T18:49:18.618Z,30.70
2022-12-06T18:51:45.976Z,24.92
2022-12-06T18:54:14.279Z,25.17
2022-12-06T18:56:42.242Z,29.55
2022-12-06T18:59:11.015Z,22.58
2022-12-06T19:01:39.539Z,25.42
2022-12-06T19:04:09.086Z,28.48
2022-12-06T19:06:38.332Z,28.90
2022-12-06T19:09:11.870Z,27.90
2022-12-06T19:11:41.179Z,41.00
2022-12-06T19:14:09.340Z,40.35
2022-12-06T19:16:38.160Z,51.38
2022-12-06T19:19:14.188Z,49.22
2022-12-06T19:21:44.176Z,38.45
2022-12-06T19:24:17.210Z,36.80
2022-12-06T19:26:44.941Z,40.35
2022-12-06T19:29:13.394Z,36.60
2022-12-06T19:31:40.803Z,123.20
2022-12-06T19:34:14.264Z,85.10
2022-12-06T19:36:41.617Z,61.70
2022-12-06T19:39:10.338Z,48.72
2022-12-06T19:41:57.932Z,52.10
2022-12-06T19:44:26.662Z,53.53
2022-12-06T19:46:54.115Z,39.38
2022-12-06T19:49:23.605Z,38.53
2022-12-06T19:51:54.287Z,173.85
2022-12-06T19:54:27.912Z,119.88
2022-12-06T19:56:57.677Z,103.53
2022-12-06T19:59:29.160Z,84.72
2022-12-06T20:01:58.450Z,74.13
2022-12-06T20:04:32.487Z,72.35
2022-12-06T20:07:00.394Z,84.55
2022-12-06T20:09:30.047Z,91.80
2022-12-06T20:12:02.180Z,84.80
2022-12-06T20:14:37.244Z,72.22
2022-12-06T20:17:19.642Z,85.57
2022-12-06T20:22:15.915Z,121.40
2022-12-06T20:24:44.083Z,100.32
2022-12-06T20:27:11.815Z,85.00
2022-12-06T20:29:40.376Z,73.78
2022-12-06T20:32:07.765Z,84.93
2022-12-06T20:34:35.419Z,95.18
2022-12-06T20:37:04.900Z,93.13
2022-12-06T20:39:38.570Z,87.82
2022-12-06T20:42:07.188Z,109.28
2022-12-06T20:44:34.900Z,112.75
2022-12-06T20:47:02.392Z,257.30
2022-12-06T20:49:29.922Z,110.85
2022-12-06T20:51:58.250Z,94.45
2022-12-06T20:54:25.683Z,90.68
2022-12-06T20:56:53.665Z,95.93
2022-12-06T20:59:21.474Z,103.97
2022-12-06T21:01:49.208Z,102.82
2022-12-06T21:04:17.000Z,83.90
2022-12-06T21:06:44.375Z,87.18
2022-12-06T21:09:11.924Z,95.78
2022-12-06T21:11:39.276Z,110.72
2022-12-06T21:14:06.781Z,95.97
2022-12-06T21:16:35.880Z,79.22
2022-12-06T21:19:06.483Z,59.95
2022-12-06T21:21:36.207Z,56.42
2022-12-06T21:24:11.720Z,57.15
2022-12-06T21:26:53.011Z,36.00
2022-12-06T21:29:30.089Z,38.20
2022-12-06T21:32:01.222Z,36.65
2022-12-06T21:34:28.642Z,55.25
2022-12-06T21:36:56.052Z,50.53
2022-12-06T21:39:23.422Z,49.08
2022-12-06T21:41:50.842Z,42.72
2022-12-06T21:44:19.630Z,61.13
2022-12-06T21:46:52.408Z,78.68
2022-12-06T21:49:20.498Z,119.55
2022-12-06T21:51:47.925Z,203.25
2022-12-06T21:54:15.244Z,102.30
2022-12-06T21:56:42.749Z,59.05
2022-12-06T21:59:09.991Z,41.42
2022-12-06T22:01:37.976Z,33.40
2022-12-06T22:04:05.471Z,32.30
2022-12-06T22:06:33.695Z,30.80
2022-12-06T22:09:04.258Z,30.70
2022-12-06T22:11:32.969Z,35.38
2022-12-06T22:14:01.312Z,32.53
2022-12-06T22:16:29.289Z,37.10
2022-12-06T22:18:57.664Z,37.97
2022-12-06T22:21:27.782Z,32.40
2022-12-06T22:23:58.347Z,32.70
2022-12-06T22:26:28.493Z,29.00
2022-12-06T22:28:55.975Z,31.65
2022-12-06T22:31:33.572Z,30.65
2022-12-06T22:34:01.711Z,27.85
2022-12-06T22:36:30.212Z,32.13
2022-12-06T22:39:00.370Z,28.20
2022-12-06T22:41:29.083Z,24.17
2022-12-06T22:43:59.125Z,28.02
2022-12-06T22:46:27.683Z,26.95
2022-12-06T22:48:56.189Z,25.80
2022-12-06T22:51:29.608Z,22.35
2022-12-06T22:54:00.018Z,24.52
2022-12-06T22:56:28.177Z,22.75
2022-12-06T22:58:59.858Z,28.63
2022-12-06T23:01:30.039Z,21.38
2022-12-06T23:04:00.572Z,35.42
2022-12-06T23:06:28.523Z,21.38
2022-12-06T23:08:56.660Z,24.30
2022-12-06T23:11:29.973Z,17.90
2022-12-06T23:13:58.188Z,19.83
2022-12-06T23:16:28.252Z,24.85
2022-12-06T23:18:56.680Z,51.30
2022-12-06T23:21:25.528Z,23.70
2022-12-06T23:23:55.751Z,18.25
2022-12-06T23:26:25.890Z,21.05
2022-12-06T23:28:53.915Z,17.67
2022-12-06T23:31:28.932Z,21.35
2022-12-06T23:33:58.702Z,21.65
2022-12-06T23:36:28.954Z,19.90
2022-12-06T23:38:56.844Z,24.70
2022-12-06T23:41:26.680Z,27.15
2022-12-06T23:43:55.571Z,32.95
2022-12-06T23:46:27.548Z,25.25
2022-12-06T23:48:55.889Z,26.27
2022-12-06T23:51:31.114Z,21.73
2022-12-06T23:54:00.247Z,21.80
2022-12-06T23:56:30.308Z,35.03
2022-12-06T23:58:58.389Z,31.60
